sensor_id;sensor_type;location;lat;lon;timestamp;pressure;altitude;pressure_sealevel;temperature;humidity
19676;BME280;39539;52.202;9.876;2022-07-21T00:00:04;100738.63;;;23.62;59.72
19676;BME280;39539;52.202;9.876;2022-07-21T00:02:32;100751.09;;;23.63;60.08
19676;BME280;39539;52.202;9.876;2022-07-21T00:04:57;100751.63;;;23.65;60.17
19676;BME280;39539;52.202;9.876;2022-07-21T00:07:23;100735.91;;;23.62;60.25
19676;BME280;39539;52.202;9.876;2022-07-21T00:09:48;100742.03;;;23.73;60.83
19676;BME280;39539;52.202;9.876;2022-07-21T00:12:13;100733.09;;;23.72;61.01
19676;BME280;39539;52.202;9.876;2022-07-21T00:14:39;100716.91;;;23.62;61.43
19676;BME280;39539;52.202;9.876;2022-07-21T00:17:04;100733.09;;;23.72;61.70
19676;BME280;39539;52.202;9.876;2022-07-21T00:19:29;100731.41;;;23.77;61.12
19676;BME280;39539;52.202;9.876;2022-07-21T00:21:55;100726.06;;;23.66;62.12
19676;BME280;39539;52.202;9.876;2022-07-21T00:24:20;100742.84;;;23.73;62.08
19676;BME280;39539;52.202;9.876;2022-07-21T00:26:46;100753.69;;;23.73;62.16
19676;BME280;39539;52.202;9.876;2022-07-21T00:29:11;100777.34;;;23.73;62.03
19676;BME280;39539;52.202;9.876;2022-07-21T00:31:37;100775.44;;;23.68;61.79
19676;BME280;39539;52.202;9.876;2022-07-21T00:34:02;100779.88;;;23.64;62.25
19676;BME280;39539;52.202;9.876;2022-07-21T00:36:27;100797.94;;;23.74;61.99
19676;BME280;39539;52.202;9.876;2022-07-21T00:38:53;100786.97;;;23.60;62.48
19676;BME280;39539;52.202;9.876;2022-07-21T00:41:18;100791.31;;;23.61;62.49
19676;BME280;39539;52.202;9.876;2022-07-21T00:43:44;100815.94;;;23.65;62.54
19676;BME280;39539;52.202;9.876;2022-07-21T00:46:09;100819.53;;;23.60;62.86
19676;BME280;39539;52.202;9.876;2022-07-21T00:48:35;100817.91;;;23.59;63.18
19676;BME280;39539;52.202;9.876;2022-07-21T00:51:00;100820.09;;;23.57;63.42
19676;BME280;39539;52.202;9.876;2022-07-21T00:53:25;100809.66;;;23.45;64.82
19676;BME280;39539;52.202;9.876;2022-07-21T00:55:51;100821.00;;;23.52;67.69
19676;BME280;39539;52.202;9.876;2022-07-21T00:58:16;100808.81;;;23.50;69.65
19676;BME280;39539;52.202;9.876;2022-07-21T01:00:42;100790.47;;;23.42;71.39
19676;BME280;39539;52.202;9.876;2022-07-21T01:03:08;100807.06;;;23.59;72.17
19676;BME280;39539;52.202;9.876;2022-07-21T01:05:33;100797.59;;;23.57;72.71
19676;BME280;39539;52.202;9.876;2022-07-21T01:07:59;100802.50;;;23.54;73.55
19676;BME280;39539;52.202;9.876;2022-07-21T01:10:28;100796.28;;;23.54;74.33
19676;BME280;39539;52.202;9.876;2022-07-21T01:12:54;100799.56;;;23.51;74.98
19676;BME280;39539;52.202;9.876;2022-07-21T01:15:20;100796.56;;;23.52;75.26
19676;BME280;39539;52.202;9.876;2022-07-21T01:17:47;100761.94;;;23.44;76.14
19676;BME280;39539;52.202;9.876;2022-07-21T01:20:15;100740.00;;;23.41;77.88
19676;BME280;39539;52.202;9.876;2022-07-21T01:22:42;100753.88;;;23.15;79.43
19676;BME280;39539;52.202;9.876;2022-07-21T01:25:09;100752.72;;;22.97;80.26
19676;BME280;39539;52.202;9.876;2022-07-21T01:27:35;100773.03;;;23.00;80.63
19676;BME280;39539;52.202;9.876;2022-07-21T01:30:00;100779.56;;;22.94;80.99
19676;BME280;39539;52.202;9.876;2022-07-21T01:32:26;100779.56;;;22.94;81.53
19676;BME280;39539;52.202;9.876;2022-07-21T01:34:52;100769.31;;;22.91;81.98
19676;BME280;39539;52.202;9.876;2022-07-21T01:37:24;100774.19;;;22.89;82.21
19676;BME280;39539;52.202;9.876;2022-07-21T01:39:52;100791.88;;;22.81;82.70
19676;BME280;39539;52.202;9.876;2022-07-21T01:42:37;100769.47;;;22.70;83.12
19676;BME280;39539;52.202;9.876;2022-07-21T01:45:03;100740.44;;;22.76;83.88
19676;BME280;39539;52.202;9.876;2022-07-21T01:47:30;100723.38;;;22.75;83.90
19676;BME280;39539;52.202;9.876;2022-07-21T01:49:55;100738.81;;;22.75;83.96
19676;BME280;39539;52.202;9.876;2022-07-21T01:52:21;100785.66;;;22.80;84.16
19676;BME280;39539;52.202;9.876;2022-07-21T01:54:46;100775.25;;;22.63;85.08
19676;BME280;39539;52.202;9.876;2022-07-21T01:57:12;100720.47;;;22.67;85.01
19676;BME280;39539;52.202;9.876;2022-07-21T01:59:37;100742.97;;;22.67;84.52
19676;BME280;39539;52.202;9.876;2022-07-21T02:02:03;100784.13;;;22.69;85.28
19676;BME280;39539;52.202;9.876;2022-07-21T02:04:28;100785.81;;;22.65;86.51
19676;BME280;39539;52.202;9.876;2022-07-21T02:06:54;100779.91;;;22.58;89.32
19676;BME280;39539;52.202;9.876;2022-07-21T02:09:19;100784.22;;;22.59;90.04
19676;BME280;39539;52.202;9.876;2022-07-21T02:11:44;100769.66;;;22.50;91.05
19676;BME280;39539;52.202;9.876;2022-07-21T02:14:10;100771.88;;;22.48;92.46
19676;BME280;39539;52.202;9.876;2022-07-21T02:16:35;100746.56;;;22.28;93.18
19676;BME280;39539;52.202;9.876;2022-07-21T02:19:01;100745.47;;;22.29;94.79
19676;BME280;39539;52.202;9.876;2022-07-21T02:21:26;100734.75;;;22.14;95.35
19676;BME280;39539;52.202;9.876;2022-07-21T02:23:52;100734.81;;;22.04;96.69
19676;BME280;39539;52.202;9.876;2022-07-21T02:26:18;100735.59;;;22.04;97.76
19676;BME280;39539;52.202;9.876;2022-07-21T02:28:43;100734.88;;;21.93;98.02
19676;BME280;39539;52.202;9.876;2022-07-21T02:31:08;100741.72;;;21.81;97.99
19676;BME280;39539;52.202;9.876;2022-07-21T02:33:34;100761.00;;;21.69;98.53
19676;BME280;39539;52.202;9.876;2022-07-21T02:36:00;100789.69;;;21.65;98.81
19676;BME280;39539;52.202;9.876;2022-07-21T02:38:26;100798.13;;;21.58;99.57
19676;BME280;39539;52.202;9.876;2022-07-21T02:40:51;100812.47;;;21.53;99.29
19676;BME280;39539;52.202;9.876;2022-07-21T02:43:17;100820.06;;;21.51;100.00
19676;BME280;39539;52.202;9.876;2022-07-21T02:45:42;100813.03;;;21.50;100.00
19676;BME280;39539;52.202;9.876;2022-07-21T02:48:11;100780.06;;;21.43;100.00
19676;BME280;39539;52.202;9.876;2022-07-21T02:50:38;100788.13;;;21.48;100.00
19676;BME280;39539;52.202;9.876;2022-07-21T02:53:07;100773.03;;;21.42;100.00
19676;BME280;39539;52.202;9.876;2022-07-21T02:55:35;100761.69;;;21.40;100.00
19676;BME280;39539;52.202;9.876;2022-07-21T03:00:29;100768.69;;;21.36;100.00
19676;BME280;39539;52.202;9.876;2022-07-21T03:02:54;100769.81;;;21.30;100.00
19676;BME280;39539;52.202;9.876;2022-07-21T03:05:20;100743.03;;;21.28;100.00
19676;BME280;39539;52.202;9.876;2022-07-21T03:07:45;100726.63;;;20.99;100.00
19676;BME280;39539;52.202;9.876;2022-07-21T03:10:10;100730.16;;;21.00;100.00
19676;BME280;39539;52.202;9.876;2022-07-21T03:12:36;100724.00;;;20.79;100.00
19676;BME280;39539;52.202;9.876;2022-07-21T03:15:01;100722.91;;;20.75;100.00
19676;BME280;39539;52.202;9.876;2022-07-21T03:17:26;100741.31;;;20.78;100.00
19676;BME280;39539;52.202;9.876;2022-07-21T03:19:52;100742.91;;;20.74;100.00
19676;BME280;39539;52.202;9.876;2022-07-21T03:22:17;100721.84;;;20.60;100.00
19676;BME280;39539;52.202;9.876;2022-07-21T03:24:43;100716.44;;;20.71;100.00
19676;BME280;39539;52.202;9.876;2022-07-21T03:27:08;100729.94;;;20.76;100.00
19676;BME280;39539;52.202;9.876;2022-07-21T03:29:33;100717.00;;;20.73;100.00
19676;BME280;39539;52.202;9.876;2022-07-21T03:31:59;100746.13;;;20.86;100.00
19676;BME280;39539;52.202;9.876;2022-07-21T03:34:24;100775.28;;;20.94;100.00
19676;BME280;39539;52.202;9.876;2022-07-21T03:36:49;100798.00;;;21.03;100.00
19676;BME280;39539;52.202;9.876;2022-07-21T03:39:15;100796.34;;;21.07;100.00
19676;BME280;39539;52.202;9.876;2022-07-21T03:41:40;100790.41;;;21.00;100.00
19676;BME280;39539;52.202;9.876;2022-07-21T03:44:05;100799.06;;;21.07;100.00
19676;BME280;39539;52.202;9.876;2022-07-21T03:46:31;100787.16;;;21.08;100.00
19676;BME280;39539;52.202;9.876;2022-07-21T03:48:56;100773.69;;;20.98;100.00
19676;BME280;39539;52.202;9.876;2022-07-21T03:51:21;100767.19;;;20.99;100.00
19676;BME280;39539;52.202;9.876;2022-07-21T03:53:47;100779.34;;;20.92;100.00
19676;BME280;39539;52.202;9.876;2022-07-21T03:56:12;100802.88;;;20.86;100.00
19676;BME280;39539;52.202;9.876;2022-07-21T03:58:38;100809.38;;;20.75;100.00
19676;BME280;39539;52.202;9.876;2022-07-21T04:01:03;100815.31;;;20.82;100.00
19676;BME280;39539;52.202;9.876;2022-07-21T04:03:28;100834.22;;;20.92;100.00
19676;BME280;39539;52.202;9.876;2022-07-21T04:05:55;100831.50;;;20.97;100.00
19676;BME280;39539;52.202;9.876;2022-07-21T04:08:21;100827.72;;;20.98;100.00
19676;BME280;39539;52.202;9.876;2022-07-21T04:10:46;100843.94;;;20.93;100.00
19676;BME280;39539;52.202;9.876;2022-07-21T04:13:13;100858.81;;;20.91;100.00
19676;BME280;39539;52.202;9.876;2022-07-21T04:15:39;100877.19;;;20.78;100.00
19676;BME280;39539;52.202;9.876;2022-07-21T04:18:05;100875.31;;;20.79;100.00
19676;BME280;39539;52.202;9.876;2022-07-21T04:20:31;100882.84;;;20.72;100.00
19676;BME280;39539;52.202;9.876;2022-07-21T04:22:56;100889.59;;;20.59;100.00
19676;BME280;39539;52.202;9.876;2022-07-21T04:25:22;100898.50;;;20.59;100.00
19676;BME280;39539;52.202;9.876;2022-07-21T04:27:49;100896.88;;;20.63;100.00
19676;BME280;39539;52.202;9.876;2022-07-21T04:30:18;100892.84;;;20.56;100.00
19676;BME280;39539;52.202;9.876;2022-07-21T04:32:44;100911.22;;;20.69;100.00
19676;BME280;39539;52.202;9.876;2022-07-21T04:35:10;100906.66;;;20.70;100.00
19676;BME280;39539;52.202;9.876;2022-07-21T04:37:36;100907.19;;;20.67;100.00
19676;BME280;39539;52.202;9.876;2022-07-21T04:40:04;100922.31;;;20.73;100.00
19676;BME280;39539;52.202;9.876;2022-07-21T04:42:30;100923.94;;;20.74;100.00
19676;BME280;39539;52.202;9.876;2022-07-21T04:44:55;100924.75;;;20.79;100.00
19676;BME280;39539;52.202;9.876;2022-07-21T04:47:21;100901.75;;;20.72;100.00
19676;BME280;39539;52.202;9.876;2022-07-21T04:49:46;100890.41;;;20.80;100.00
19676;BME280;39539;52.202;9.876;2022-07-21T04:52:12;100903.13;;;20.84;100.00
19676;BME280;39539;52.202;9.876;2022-07-21T04:54:37;100903.41;;;20.88;100.00
19676;BME280;39539;52.202;9.876;2022-07-21T04:57:03;100894.50;;;20.72;100.00
19676;BME280;39539;52.202;9.876;2022-07-21T04:59:31;100897.44;;;20.66;100.00
19676;BME280;39539;52.202;9.876;2022-07-21T05:01:57;100899.09;;;20.82;100.00
19676;BME280;39539;52.202;9.876;2022-07-21T05:04:22;100900.69;;;20.62;100.00
19676;BME280;39539;52.202;9.876;2022-07-21T05:06:49;100883.13;;;20.70;100.00
19676;BME280;39539;52.202;9.876;2022-07-21T05:09:14;100905.56;;;20.91;100.00
19676;BME280;39539;52.202;9.876;2022-07-21T05:11:40;100894.22;;;20.99;100.00
19676;BME280;39539;52.202;9.876;2022-07-21T05:14:05;100898.53;;;21.05;100.00
19676;BME280;39539;52.202;9.876;2022-07-21T05:16:31;100892.06;;;21.01;100.00
19676;BME280;39539;52.202;9.876;2022-07-21T05:18:56;100890.72;;;21.09;100.00
19676;BME280;39539;52.202;9.876;2022-07-21T05:21:21;100902.84;;;21.27;100.00
19676;BME280;39539;52.202;9.876;2022-07-21T05:23:47;100883.91;;;21.17;100.00
19676;BME280;39539;52.202;9.876;2022-07-21T05:26:13;100890.69;;;21.24;100.00
19676;BME280;39539;52.202;9.876;2022-07-21T05:28:38;100890.69;;;21.24;100.00
19676;BME280;39539;52.202;9.876;2022-07-21T05:31:04;100905.53;;;21.37;100.00
19676;BME280;39539;52.202;9.876;2022-07-21T05:33:30;100892.31;;;21.46;100.00
19676;BME280;39539;52.202;9.876;2022-07-21T05:35:55;100893.91;;;21.47;100.00
19676;BME280;39539;52.202;9.876;2022-07-21T05:38:22;100904.75;;;21.47;100.00
19676;BME280;39539;52.202;9.876;2022-07-21T05:40:57;100917.16;;;21.53;100.00
19676;BME280;39539;52.202;9.876;2022-07-21T05:43:25;100906.91;;;21.35;100.00
19676;BME280;39539;52.202;9.876;2022-07-21T05:45:51;100893.66;;;21.38;100.00
19676;BME280;39539;52.202;9.876;2022-07-21T05:48:18;100912.28;;;21.55;100.00
19676;BME280;39539;52.202;9.876;2022-07-21T05:50:44;100917.97;;;21.59;100.00
19676;BME280;39539;52.202;9.876;2022-07-21T05:53:10;100924.41;;;21.68;100.00
19676;BME280;39539;52.202;9.876;2022-07-21T05:55:35;100929.84;;;21.68;100.00
19676;BME280;39539;52.202;9.876;2022-07-21T05:58:01;100935.53;;;21.61;100.00
19676;BME280;39539;52.202;9.876;2022-07-21T06:00:26;100937.44;;;21.66;100.00
19676;BME280;39539;52.202;9.876;2022-07-21T06:02:52;100930.94;;;21.57;100.00
19676;BME280;39539;52.202;9.876;2022-07-21T06:05:17;100925.50;;;21.77;100.00
19676;BME280;39539;52.202;9.876;2022-07-21T06:07:42;100917.28;;;22.03;100.00
19676;BME280;39539;52.202;9.876;2022-07-21T06:10:08;100936.19;;;22.68;100.00
19676;BME280;39539;52.202;9.876;2022-07-21T06:12:34;100937.06;;;23.02;98.36
19676;BME280;39539;52.202;9.876;2022-07-21T06:14:59;100928.56;;;23.09;95.78
19676;BME280;39539;52.202;9.876;2022-07-21T06:17:25;100933.56;;;22.97;96.46
19676;BME280;39539;52.202;9.876;2022-07-21T06:19:53;100930.84;;;22.97;97.66
19676;BME280;39539;52.202;9.876;2022-07-21T06:22:18;100925.41;;;23.31;95.82
19676;BME280;39539;52.202;9.876;2022-07-21T06:24:43;100943.38;;;23.51;94.40
19676;BME280;39539;52.202;9.876;2022-07-21T06:27:09;100930.03;;;23.30;95.26
19676;BME280;39539;52.202;9.876;2022-07-21T06:29:34;100939.31;;;23.78;94.79
19676;BME280;39539;52.202;9.876;2022-07-21T06:32:00;100931.34;;;24.10;91.32
19676;BME280;39539;52.202;9.876;2022-07-21T06:34:26;100921.00;;;24.12;91.34
19676;BME280;39539;52.202;9.876;2022-07-21T06:36:51;100931.94;;;24.07;90.51
19676;BME280;39539;52.202;9.876;2022-07-21T06:39:17;100930.53;;;23.86;91.39
19676;BME280;39539;52.202;9.876;2022-07-21T06:41:42;100945.22;;;23.85;90.72
19676;BME280;39539;52.202;9.876;2022-07-21T06:44:07;100948.72;;;23.61;90.68
19676;BME280;39539;52.202;9.876;2022-07-21T06:46:34;100941.03;;;23.68;90.60
19676;BME280;39539;52.202;9.876;2022-07-21T06:49:00;100937.25;;;23.69;89.59
19676;BME280;39539;52.202;9.876;2022-07-21T06:51:26;100937.03;;;23.90;89.33
19676;BME280;39539;52.202;9.876;2022-07-21T06:53:51;100931.41;;;24.05;88.61
19676;BME280;39539;52.202;9.876;2022-07-21T06:56:17;100936.06;;;24.24;87.76
19676;BME280;39539;52.202;9.876;2022-07-21T06:58:43;100938.38;;;24.11;88.89
19676;BME280;39539;52.202;9.876;2022-07-21T07:01:08;100918.63;;;24.06;87.54
19676;BME280;39539;52.202;9.876;2022-07-21T07:03:34;100923.13;;;24.15;87.02
19676;BME280;39539;52.202;9.876;2022-07-21T07:05:59;100921.66;;;24.04;89.25
19676;BME280;39539;52.202;9.876;2022-07-21T07:08:25;100911.47;;;23.91;88.89
19676;BME280;39539;52.202;9.876;2022-07-21T07:10:50;100918.72;;;24.19;87.82
19676;BME280;39539;52.202;9.876;2022-07-21T07:13:17;100904.81;;;24.45;85.95
19676;BME280;39539;52.202;9.876;2022-07-21T07:15:43;100899.19;;;25.26;82.03
19676;BME280;39539;52.202;9.876;2022-07-21T07:18:09;100915.47;;;25.86;78.27
19676;BME280;39539;52.202;9.876;2022-07-21T07:20:36;100917.88;;;25.74;77.37
19676;BME280;39539;52.202;9.876;2022-07-21T07:23:02;100914.94;;;25.57;78.46
19676;BME280;39539;52.202;9.876;2022-07-21T07:25:27;100914.84;;;25.48;78.09
19676;BME280;39539;52.202;9.876;2022-07-21T07:27:53;100913.41;;;25.37;77.73
19676;BME280;39539;52.202;9.876;2022-07-21T07:30:19;100922.19;;;25.34;79.08
19676;BME280;39539;52.202;9.876;2022-07-21T07:32:45;100924.91;;;25.47;79.42
19676;BME280;39539;52.202;9.876;2022-07-21T07:35:13;100904.94;;;25.38;78.10
19676;BME280;39539;52.202;9.876;2022-07-21T07:37:40;100914.63;;;25.58;78.49
19676;BME280;39539;52.202;9.876;2022-07-21T07:40:09;100910.28;;;25.43;78.92
19676;BME280;39539;52.202;9.876;2022-07-21T07:42:37;100916.59;;;25.25;78.08
19676;BME280;39539;52.202;9.876;2022-07-21T07:45:07;100923.88;;;24.97;79.31
19676;BME280;39539;52.202;9.876;2022-07-21T07:47:33;100926.25;;;24.65;81.08
19676;BME280;39539;52.202;9.876;2022-07-21T07:49:59;100923.38;;;24.38;82.12
19676;BME280;39539;52.202;9.876;2022-07-21T07:52:25;100936.56;;;24.26;82.59
19676;BME280;39539;52.202;9.876;2022-07-21T07:54:50;100933.31;;;24.05;83.90
19676;BME280;39539;52.202;9.876;2022-07-21T07:57:16;100941.94;;;23.88;85.09
19676;BME280;39539;52.202;9.876;2022-07-21T07:59:42;100951.78;;;23.84;85.78
19676;BME280;39539;52.202;9.876;2022-07-21T08:02:07;100943.13;;;23.52;86.30
19676;BME280;39539;52.202;9.876;2022-07-21T08:04:33;100945.13;;;23.42;87.56
19676;BME280;39539;52.202;9.876;2022-07-21T08:07:00;100954.47;;;23.25;88.97
19676;BME280;39539;52.202;9.876;2022-07-21T08:09:26;100953.09;;;22.99;91.09
19676;BME280;39539;52.202;9.876;2022-07-21T08:11:52;100960.69;;;22.92;92.58
19676;BME280;39539;52.202;9.876;2022-07-21T08:14:19;100970.00;;;22.75;93.16
19676;BME280;39539;52.202;9.876;2022-07-21T08:16:44;100973.56;;;22.71;93.76
19676;BME280;39539;52.202;9.876;2022-07-21T08:19:11;100972.34;;;22.48;94.45
19676;BME280;39539;52.202;9.876;2022-07-21T08:21:37;100978.03;;;22.51;95.36
19676;BME280;39539;52.202;9.876;2022-07-21T08:24:03;100987.50;;;22.54;95.97
19676;BME280;39539;52.202;9.876;2022-07-21T08:26:28;100984.19;;;22.62;94.93
19676;BME280;39539;52.202;9.876;2022-07-21T08:28:55;100982.78;;;22.70;94.59
19676;BME280;39539;52.202;9.876;2022-07-21T08:31:25;100988.91;;;22.96;92.95
19676;BME280;39539;52.202;9.876;2022-07-21T08:33:51;100981.69;;;23.15;92.52
19676;BME280;39539;52.202;9.876;2022-07-21T08:36:17;100979.84;;;23.69;90.37
19676;BME280;39539;52.202;9.876;2022-07-21T08:38:43;100983.06;;;24.24;87.11
19676;BME280;39539;52.202;9.876;2022-07-21T08:41:08;100980.94;;;24.83;84.46
19676;BME280;39539;52.202;9.876;2022-07-21T08:43:35;100974.31;;;24.89;82.54
19676;BME280;39539;52.202;9.876;2022-07-21T08:46:01;100968.34;;;25.06;82.18
19676;BME280;39539;52.202;9.876;2022-07-21T08:48:27;100987.50;;;25.34;80.72
19676;BME280;39539;52.202;9.876;2022-07-21T08:50:55;100961.72;;;24.93;81.14
19676;BME280;39539;52.202;9.876;2022-07-21T08:53:21;100981.63;;;25.07;81.08
19676;BME280;39539;52.202;9.876;2022-07-21T08:55:46;100975.66;;;25.24;79.30
19676;BME280;39539;52.202;9.876;2022-07-21T08:58:12;100961.00;;;24.87;80.61
19676;BME280;39539;52.202;9.876;2022-07-21T09:00:40;100955.53;;;25.06;79.22
19676;BME280;39539;52.202;9.876;2022-07-21T09:03:19;100975.47;;;25.21;78.71
19676;BME280;39539;52.202;9.876;2022-07-21T09:06:12;100967.50;;;25.24;78.04
19676;BME280;39539;52.202;9.876;2022-07-21T09:08:43;100965.84;;;25.56;75.99
19676;BME280;39539;52.202;9.876;2022-07-21T09:11:22;100964.59;;;26.09;73.65
19676;BME280;39539;52.202;9.876;2022-07-21T09:14:11;100966.88;;;26.57;71.55
19676;BME280;39539;52.202;9.876;2022-07-21T09:16:43;100964.03;;;26.48;70.48
19676;BME280;39539;52.202;9.876;2022-07-21T09:21:43;100965.53;;;25.90;73.08
19676;BME280;39539;52.202;9.876;2022-07-21T09:24:20;100959.38;;;25.85;72.54
19676;BME280;39539;52.202;9.876;2022-07-21T09:29:41;100964.41;;;27.14;67.98
19676;BME280;39539;52.202;9.876;2022-07-21T09:34:54;100955.66;;;28.89;58.55
19676;BME280;39539;52.202;9.876;2022-07-21T09:37:23;100977.06;;;28.70;58.65
19676;BME280;39539;52.202;9.876;2022-07-21T09:39:54;100973.75;;;28.07;59.88
19676;BME280;39539;52.202;9.876;2022-07-21T09:42:32;100973.94;;;27.48;62.52
19676;BME280;39539;52.202;9.876;2022-07-21T09:45:04;100977.59;;;27.12;62.89
19676;BME280;39539;52.202;9.876;2022-07-21T09:47:32;100972.66;;;26.78;64.86
19676;BME280;39539;52.202;9.876;2022-07-21T09:49:59;100974.47;;;26.82;64.51
19676;BME280;39539;52.202;9.876;2022-07-21T09:55:01;100964.88;;;28.01;62.61
19676;BME280;39539;52.202;9.876;2022-07-21T09:57:27;100963.44;;;28.04;60.41
19676;BME280;39539;52.202;9.876;2022-07-21T09:59:54;100971.44;;;28.57;58.67
19676;BME280;39539;52.202;9.876;2022-07-21T10:02:27;100972.94;;;29.63;55.63
19676;BME280;39539;52.202;9.876;2022-07-21T10:05:08;100979.41;;;32.82;50.48
19676;BME280;39539;52.202;9.876;2022-07-21T10:07:37;100974.13;;;34.86;44.78
19676;BME280;39539;52.202;9.876;2022-07-21T10:10:03;100986.41;;;35.54;43.21
19676;BME280;39539;52.202;9.876;2022-07-21T10:12:29;100991.94;;;36.57;40.71
19676;BME280;39539;52.202;9.876;2022-07-21T10:14:55;100986.41;;;38.28;38.54
19676;BME280;39539;52.202;9.876;2022-07-21T10:17:22;100980.63;;;38.62;37.29
19676;BME280;39539;52.202;9.876;2022-07-21T10:23:14;100976.91;;;38.36;37.16
19676;BME280;39539;52.202;9.876;2022-07-21T10:25:41;100976.53;;;37.75;36.22
19676;BME280;39539;52.202;9.876;2022-07-21T10:30:41;100962.56;;;38.27;37.14
19676;BME280;39539;52.202;9.876;2022-07-21T10:33:07;100934.69;;;39.18;35.05
19676;BME280;39539;52.202;9.876;2022-07-21T10:35:32;100936.13;;;38.55;35.99
19676;BME280;39539;52.202;9.876;2022-07-21T10:37:59;100941.97;;;38.32;35.69
19676;BME280;39539;52.202;9.876;2022-07-21T10:45:42;100949.63;;;32.72;42.82
19676;BME280;39539;52.202;9.876;2022-07-21T10:51:03;100936.03;;;31.73;46.83
19676;BME280;39539;52.202;9.876;2022-07-21T10:53:29;100946.44;;;31.80;46.34
19676;BME280;39539;52.202;9.876;2022-07-21T10:55:55;100942.78;;;31.18;47.66
19676;BME280;39539;52.202;9.876;2022-07-21T11:03:27;100924.66;;;31.38;47.36
19676;BME280;39539;52.202;9.876;2022-07-21T11:08:38;100918.34;;;32.11;46.93
19676;BME280;39539;52.202;9.876;2022-07-21T11:22:02;100933.91;;;28.40;56.33
19676;BME280;39539;52.202;9.876;2022-07-21T11:24:28;100927.44;;;28.19;58.32
19676;BME280;39539;52.202;9.876;2022-07-21T11:27:08;100916.50;;;28.19;62.12
19676;BME280;39539;52.202;9.876;2022-07-21T11:29:35;100931.63;;;28.25;64.82
19676;BME280;39539;52.202;9.876;2022-07-21T11:32:02;100937.72;;;28.05;67.01
19676;BME280;39539;52.202;9.876;2022-07-21T11:34:39;100927.31;;;28.33;62.37
19676;BME280;39539;52.202;9.876;2022-07-21T11:37:05;100927.63;;;28.23;63.54
19676;BME280;39539;52.202;9.876;2022-07-21T11:39:31;100926.69;;;29.05;61.81
19676;BME280;39539;52.202;9.876;2022-07-21T11:42:02;100912.69;;;29.45;57.74
19676;BME280;39539;52.202;9.876;2022-07-21T11:44:28;100917.75;;;29.73;55.77
19676;BME280;39539;52.202;9.876;2022-07-21T11:46:56;100900.75;;;29.50;55.16
19676;BME280;39539;52.202;9.876;2022-07-21T11:49:22;100889.78;;;29.12;55.89
19676;BME280;39539;52.202;9.876;2022-07-21T11:51:53;100897.03;;;28.90;54.62
19676;BME280;39539;52.202;9.876;2022-07-21T11:56:55;100901.56;;;29.03;54.20
19676;BME280;39539;52.202;9.876;2022-07-21T11:59:21;100901.69;;;28.98;55.61
19676;BME280;39539;52.202;9.876;2022-07-21T12:04:14;100893.53;;;28.29;62.25
19676;BME280;39539;52.202;9.876;2022-07-21T12:06:39;100886.88;;;27.86;61.40
19676;BME280;39539;52.202;9.876;2022-07-21T12:09:05;100928.91;;;27.76;65.22
19676;BME280;39539;52.202;9.876;2022-07-21T12:11:36;100917.53;;;27.12;68.83
19676;BME280;39539;52.202;9.876;2022-07-21T12:14:02;100919.13;;;27.13;68.24
19676;BME280;39539;52.202;9.876;2022-07-21T12:16:28;100923.81;;;26.90;69.04
19676;BME280;39539;52.202;9.876;2022-07-21T12:19:15;100924.44;;;26.64;71.98
19676;BME280;39539;52.202;9.876;2022-07-21T12:21:52;100918.84;;;26.33;77.76
19676;BME280;39539;52.202;9.876;2022-07-21T12:24:19;100906.16;;;26.01;77.79
19676;BME280;39539;52.202;9.876;2022-07-21T12:26:45;100917.97;;;26.10;77.75
19676;BME280;39539;52.202;9.876;2022-07-21T12:29:28;100903.41;;;26.15;74.97
19676;BME280;39539;52.202;9.876;2022-07-21T12:31:54;100905.13;;;26.25;75.11
19676;BME280;39539;52.202;9.876;2022-07-21T12:34:19;100914.44;;;26.46;74.26
19676;BME280;39539;52.202;9.876;2022-07-21T12:36:46;100898.19;;;26.55;72.32
19676;BME280;39539;52.202;9.876;2022-07-21T12:39:20;100904.47;;;26.41;69.57
19676;BME280;39539;52.202;9.876;2022-07-21T12:42:07;100904.28;;;26.38;70.01
19676;BME280;39539;52.202;9.876;2022-07-21T12:44:33;100902.56;;;26.42;73.43
19676;BME280;39539;52.202;9.876;2022-07-21T12:47:19;100896.59;;;26.54;74.15
19676;BME280;39539;52.202;9.876;2022-07-21T12:52:23;100902.53;;;27.23;71.44
19676;BME280;39539;52.202;9.876;2022-07-21T12:54:48;100899.84;;;27.72;68.26
19676;BME280;39539;52.202;9.876;2022-07-21T12:57:14;100898.34;;;28.14;64.75
19676;BME280;39539;52.202;9.876;2022-07-21T12:59:42;100877.75;;;28.08;62.79
19676;BME280;39539;52.202;9.876;2022-07-21T13:02:07;100886.00;;;28.43;63.27
19676;BME280;39539;52.202;9.876;2022-07-21T13:04:33;100889.53;;;28.52;62.41
19676;BME280;39539;52.202;9.876;2022-07-21T13:06:58;100886.00;;;28.43;63.34
19676;BME280;39539;52.202;9.876;2022-07-21T13:09:24;100885.19;;;28.34;59.55
19676;BME280;39539;52.202;9.876;2022-07-21T13:11:49;100887.25;;;28.19;61.40
19676;BME280;39539;52.202;9.876;2022-07-21T13:14:14;100874.44;;;27.71;62.37
19676;BME280;39539;52.202;9.876;2022-07-21T13:16:40;100880.94;;;27.84;64.17
19676;BME280;39539;52.202;9.876;2022-07-21T13:19:05;100883.50;;;27.81;61.49
19676;BME280;39539;52.202;9.876;2022-07-21T13:21:31;100887.50;;;27.35;61.22
19676;BME280;39539;52.202;9.876;2022-07-21T13:23:57;100891.47;;;27.06;62.15
19676;BME280;39539;52.202;9.876;2022-07-21T13:26:22;100875.66;;;27.17;60.21
19676;BME280;39539;52.202;9.876;2022-07-21T13:28:49;100880.09;;;27.04;62.42
19676;BME280;39539;52.202;9.876;2022-07-21T13:31:15;100885.50;;;27.18;62.46
19676;BME280;39539;52.202;9.876;2022-07-21T13:33:40;100879.00;;;27.14;60.80
19676;BME280;39539;52.202;9.876;2022-07-21T13:36:08;100886.28;;;27.18;61.79
19676;BME280;39539;52.202;9.876;2022-07-21T13:38:33;100879.09;;;27.00;61.45